sensor_id;sensor_type;location;lat;lon;timestamp;temperature;humidity
8832;DHT22;4452;50.756;4.472;2023-10-19T00:01:14;15.90;99.90
8832;DHT22;4452;50.756;4.472;2023-10-19T00:03:41;15.90;99.90
8832;DHT22;4452;50.756;4.472;2023-10-19T00:06:10;16.00;99.90
8832;DHT22;4452;50.756;4.472;2023-10-19T00:08:37;15.90;99.90
8832;DHT22;4452;50.756;4.472;2023-10-19T00:11:10;15.90;99.90
8832;DHT22;4452;50.756;4.472;2023-10-19T00:13:38;15.80;99.90
8832;DHT22;4452;50.756;4.472;2023-10-19T00:16:08;15.70;99.90
8832;DHT22;4452;50.756;4.472;2023-10-19T00:18:54;15.70;99.90
8832;DHT22;4452;50.756;4.472;2023-10-19T00:21:24;15.70;99.90
8832;DHT22;4452;50.756;4.472;2023-10-19T00:23:56;15.80;99.90
8832;DHT22;4452;50.756;4.472;2023-10-19T00:26:26;15.70;99.90
8832;DHT22;4452;50.756;4.472;2023-10-19T00:28:52;15.70;99.90
8832;DHT22;4452;50.756;4.472;2023-10-19T00:31:24;15.70;99.90
8832;DHT22;4452;50.756;4.472;2023-10-19T00:33:53;15.70;99.90
8832;DHT22;4452;50.756;4.472;2023-10-19T00:36:20;15.60;99.90
8832;DHT22;4452;50.756;4.472;2023-10-19T00:38:47;15.60;99.90
8832;DHT22;4452;50.756;4.472;2023-10-19T00:41:18;15.70;99.90
8832;DHT22;4452;50.756;4.472;2023-10-19T00:43:49;15.70;99.90
8832;DHT22;4452;50.756;4.472;2023-10-19T00:46:16;15.70;99.90
8832;DHT22;4452;50.756;4.472;2023-10-19T00:48:56;15.70;99.90
8832;DHT22;4452;50.756;4.472;2023-10-19T00:51:40;15.70;99.90
8832;DHT22;4452;50.756;4.472;2023-10-19T00:54:25;15.70;99.90
8832;DHT22;4452;50.756;4.472;2023-10-19T00:57:19;15.60;99.90
8832;DHT22;4452;50.756;4.472;2023-10-19T01:00:01;15.70;99.90
8832;DHT22;4452;50.756;4.472;2023-10-19T01:02:46;15.70;99.90
8832;DHT22;4452;50.756;4.472;2023-10-19T01:05:12;15.70;99.90
8832;DHT22;4452;50.756;4.472;2023-10-19T01:07:47;15.70;99.90
8832;DHT22;4452;50.756;4.472;2023-10-19T01:10:19;15.70;99.90
8832;DHT22;4452;50.756;4.472;2023-10-19T01:12:49;15.60;99.90
8832;DHT22;4452;50.756;4.472;2023-10-19T01:15:19;15.60;99.90
8832;DHT22;4452;50.756;4.472;2023-10-19T01:17:56;15.60;99.90
8832;DHT22;4452;50.756;4.472;2023-10-19T01:20:29;15.60;99.90
8832;DHT22;4452;50.756;4.472;2023-10-19T01:23:00;15.70;99.90
8832;DHT22;4452;50.756;4.472;2023-10-19T01:25:50;15.60;99.90
8832;DHT22;4452;50.756;4.472;2023-10-19T01:28:36;15.60;99.90
8832;DHT22;4452;50.756;4.472;2023-10-19T01:31:12;15.60;99.90
8832;DHT22;4452;50.756;4.472;2023-10-19T01:33:49;15.60;99.90
8832;DHT22;4452;50.756;4.472;2023-10-19T01:36:14;15.70;99.90
8832;DHT22;4452;50.756;4.472;2023-10-19T01:38:42;15.60;99.90
8832;DHT22;4452;50.756;4.472;2023-10-19T01:41:09;15.60;99.90
8832;DHT22;4452;50.756;4.472;2023-10-19T01:43:48;15.60;99.90
8832;DHT22;4452;50.756;4.472;2023-10-19T01:46:16;15.60;99.90
8832;DHT22;4452;50.756;4.472;2023-10-19T01:48:53;15.60;99.90
8832;DHT22;4452;50.756;4.472;2023-10-19T01:51:23;15.50;99.90
8832;DHT22;4452;50.756;4.472;2023-10-19T01:53:50;15.50;99.90
8832;DHT22;4452;50.756;4.472;2023-10-19T01:56:17;15.50;99.90
8832;DHT22;4452;50.756;4.472;2023-10-19T01:58:44;15.50;99.90
8832;DHT22;4452;50.756;4.472;2023-10-19T02:01:13;15.40;99.90
8832;DHT22;4452;50.756;4.472;2023-10-19T02:03:43;15.40;99.90
8832;DHT22;4452;50.756;4.472;2023-10-19T02:06:13;15.40;99.90
8832;DHT22;4452;50.756;4.472;2023-10-19T02:08:53;15.40;99.90
8832;DHT22;4452;50.756;4.472;2023-10-19T02:11:23;15.40;99.90
8832;DHT22;4452;50.756;4.472;2023-10-19T02:13:51;15.50;99.90
8832;DHT22;4452;50.756;4.472;2023-10-19T02:16:18;15.40;99.90
8832;DHT22;4452;50.756;4.472;2023-10-19T02:18:49;15.40;99.90
8832;DHT22;4452;50.756;4.472;2023-10-19T02:21:16;15.30;99.90
8832;DHT22;4452;50.756;4.472;2023-10-19T02:23:48;15.30;99.90
8832;DHT22;4452;50.756;4.472;2023-10-19T02:26:20;15.20;99.90
8832;DHT22;4452;50.756;4.472;2023-10-19T02:28:48;15.30;99.90
8832;DHT22;4452;50.756;4.472;2023-10-19T02:31:17;15.20;99.90
8832;DHT22;4452;50.756;4.472;2023-10-19T02:33:53;15.20;99.90
8832;DHT22;4452;50.756;4.472;2023-10-19T02:36:29;15.10;99.90
8832;DHT22;4452;50.756;4.472;2023-10-19T02:39:03;15.10;99.90
8832;DHT22;4452;50.756;4.472;2023-10-19T02:41:37;15.10;99.90
8832;DHT22;4452;50.756;4.472;2023-10-19T02:44:14;15.00;99.90
8832;DHT22;4452;50.756;4.472;2023-10-19T02:46:44;15.00;99.90
8832;DHT22;4452;50.756;4.472;2023-10-19T02:49:12;15.00;99.90
8832;DHT22;4452;50.756;4.472;2023-10-19T02:51:50;14.90;99.90
8832;DHT22;4452;50.756;4.472;2023-10-19T02:54:17;14.90;99.90
8832;DHT22;4452;50.756;4.472;2023-10-19T02:56:45;14.90;99.90
8832;DHT22;4452;50.756;4.472;2023-10-19T02:59:21;14.80;99.90
8832;DHT22;4452;50.756;4.472;2023-10-19T03:01:54;14.70;99.90
8832;DHT22;4452;50.756;4.472;2023-10-19T03:04:27;14.80;99.90
8832;DHT22;4452;50.756;4.472;2023-10-19T03:06:56;14.80;99.90
8832;DHT22;4452;50.756;4.472;2023-10-19T03:09:22;14.70;99.90
8832;DHT22;4452;50.756;4.472;2023-10-19T03:11:54;14.80;99.90
8832;DHT22;4452;50.756;4.472;2023-10-19T03:14:27;14.80;99.90
8832;DHT22;4452;50.756;4.472;2023-10-19T03:16:53;14.80;99.90
8832;DHT22;4452;50.756;4.472;2023-10-19T03:19:22;14.80;99.90
8832;DHT22;4452;50.756;4.472;2023-10-19T03:21:48;14.80;99.90
8832;DHT22;4452;50.756;4.472;2023-10-19T03:24:18;14.80;99.90
8832;DHT22;4452;50.756;4.472;2023-10-19T03:27:09;14.80;99.90
8832;DHT22;4452;50.756;4.472;2023-10-19T03:29:51;14.90;99.90
8832;DHT22;4452;50.756;4.472;2023-10-19T03:32:21;14.90;99.90
8832;DHT22;4452;50.756;4.472;2023-10-19T03:34:56;14.90;99.90
8832;DHT22;4452;50.756;4.472;2023-10-19T03:37:26;14.90;99.90
8832;DHT22;4452;50.756;4.472;2023-10-19T03:39:55;14.90;99.90
8832;DHT22;4452;50.756;4.472;2023-10-19T03:42:22;14.90;99.90
8832;DHT22;4452;50.756;4.472;2023-10-19T03:44:51;14.90;99.90
8832;DHT22;4452;50.756;4.472;2023-10-19T03:47:20;14.90;99.90
8832;DHT22;4452;50.756;4.472;2023-10-19T03:49:50;14.90;99.90
8832;DHT22;4452;50.756;4.472;2023-10-19T03:52:16;15.00;99.90
8832;DHT22;4452;50.756;4.472;2023-10-19T03:54:42;15.00;99.90
8832;DHT22;4452;50.756;4.472;2023-10-19T03:57:12;15.00;99.90
8832;DHT22;4452;50.756;4.472;2023-10-19T03:59:39;15.00;99.90
8832;DHT22;4452;50.756;4.472;2023-10-19T04:02:05;15.00;99.90
8832;DHT22;4452;50.756;4.472;2023-10-19T04:04:35;15.00;99.90
8832;DHT22;4452;50.756;4.472;2023-10-19T04:07:01;15.00;99.90
8832;DHT22;4452;50.756;4.472;2023-10-19T04:09:36;15.00;99.90
8832;DHT22;4452;50.756;4.472;2023-10-19T04:12:14;15.00;99.90
8832;DHT22;4452;50.756;4.472;2023-10-19T04:14:42;15.00;99.90
8832;DHT22;4452;50.756;4.472;2023-10-19T04:17:08;15.00;99.90
8832;DHT22;4452;50.756;4.472;2023-10-19T04:19:37;15.00;99.90
8832;DHT22;4452;50.756;4.472;2023-10-19T04:22:04;15.00;99.90
8832;DHT22;4452;50.756;4.472;2023-10-19T04:24:30;15.00;99.90
8832;DHT22;4452;50.756;4.472;2023-10-19T04:26:59;15.00;99.90
8832;DHT22;4452;50.756;4.472;2023-10-19T04:29:25;15.10;99.90
8832;DHT22;4452;50.756;4.472;2023-10-19T04:31:53;15.00;99.90
8832;DHT22;4452;50.756;4.472;2023-10-19T04:34:22;15.10;99.90
8832;DHT22;4452;50.756;4.472;2023-10-19T04:36:49;15.10;99.90
8832;DHT22;4452;50.756;4.472;2023-10-19T04:39:16;15.10;99.90
8832;DHT22;4452;50.756;4.472;2023-10-19T04:41:46;15.10;99.90
8832;DHT22;4452;50.756;4.472;2023-10-19T04:44:17;15.10;99.90
8832;DHT22;4452;50.756;4.472;2023-10-19T04:46:46;15.10;99.90
8832;DHT22;4452;50.756;4.472;2023-10-19T04:49:15;15.10;99.90
8832;DHT22;4452;50.756;4.472;2023-10-19T04:51:44;15.10;99.90
8832;DHT22;4452;50.756;4.472;2023-10-19T04:54:09;15.10;99.90
8832;DHT22;4452;50.756;4.472;2023-10-19T04:56:35;15.10;99.90
8832;DHT22;4452;50.756;4.472;2023-10-19T04:59:02;15.10;99.90
8832;DHT22;4452;50.756;4.472;2023-10-19T05:01:28;15.00;99.90
8832;DHT22;4452;50.756;4.472;2023-10-19T05:03:54;15.10;99.90
8832;DHT22;4452;50.756;4.472;2023-10-19T05:06:20;15.10;99.90
8832;DHT22;4452;50.756;4.472;2023-10-19T05:08:47;15.00;99.90
8832;DHT22;4452;50.756;4.472;2023-10-19T05:11:13;15.00;99.90
8832;DHT22;4452;50.756;4.472;2023-10-19T05:13:39;15.00;99.90
8832;DHT22;4452;50.756;4.472;2023-10-19T05:16:05;15.00;99.90
8832;DHT22;4452;50.756;4.472;2023-10-19T05:18:31;15.10;99.90
8832;DHT22;4452;50.756;4.472;2023-10-19T05:20:59;15.00;99.90
8832;DHT22;4452;50.756;4.472;2023-10-19T05:23:27;15.00;99.90
8832;DHT22;4452;50.756;4.472;2023-10-19T05:26:05;15.10;99.90
8832;DHT22;4452;50.756;4.472;2023-10-19T05:28:32;15.00;99.90
8832;DHT22;4452;50.756;4.472;2023-10-19T05:30:58;15.00;99.90
8832;DHT22;4452;50.756;4.472;2023-10-19T05:33:26;15.00;99.90
8832;DHT22;4452;50.756;4.472;2023-10-19T05:35:52;15.00;99.90
8832;DHT22;4452;50.756;4.472;2023-10-19T05:38:18;15.00;99.90
8832;DHT22;4452;50.756;4.472;2023-10-19T05:40:48;14.90;99.90
8832;DHT22;4452;50.756;4.472;2023-10-19T05:43:15;15.00;99.90
8832;DHT22;4452;50.756;4.472;2023-10-19T05:45:41;15.00;99.90
8832;DHT22;4452;50.756;4.472;2023-10-19T05:48:07;15.00;99.90
8832;DHT22;4452;50.756;4.472;2023-10-19T05:50:34;15.00;99.90
8832;DHT22;4452;50.756;4.472;2023-10-19T05:53:00;14.90;99.90
8832;DHT22;4452;50.756;4.472;2023-10-19T05:55:26;14.90;99.90
8832;DHT22;4452;50.756;4.472;2023-10-19T05:57:51;14.90;99.90
8832;DHT22;4452;50.756;4.472;2023-10-19T06:00:17;14.90;99.90
8832;DHT22;4452;50.756;4.472;2023-10-19T06:02:47;14.90;99.90
8832;DHT22;4452;50.756;4.472;2023-10-19T06:05:13;14.90;99.90
8832;DHT22;4452;50.756;4.472;2023-10-19T06:07:46;14.90;99.90
8832;DHT22;4452;50.756;4.472;2023-10-19T06:10:14;14.90;99.90
8832;DHT22;4452;50.756;4.472;2023-10-19T06:12:44;14.90;99.90
8832;DHT22;4452;50.756;4.472;2023-10-19T06:15:11;14.90;99.90
8832;DHT22;4452;50.756;4.472;2023-10-19T06:17:41;14.90;99.90
8832;DHT22;4452;50.756;4.472;2023-10-19T06:20:27;14.90;99.90
8832;DHT22;4452;50.756;4.472;2023-10-19T06:22:54;14.90;99.90
8832;DHT22;4452;50.756;4.472;2023-10-19T06:25:22;14.90;99.90
8832;DHT22;4452;50.756;4.472;2023-10-19T06:27:50;14.90;99.90
8832;DHT22;4452;50.756;4.472;2023-10-19T06:30:17;14.90;99.90
8832;DHT22;4452;50.756;4.472;2023-10-19T06:32:52;14.90;99.90
8832;DHT22;4452;50.756;4.472;2023-10-19T06:35:18;14.80;99.90
8832;DHT22;4452;50.756;4.472;2023-10-19T06:37:45;14.80;99.90
8832;DHT22;4452;50.756;4.472;2023-10-19T06:40:12;14.70;99.90
8832;DHT22;4452;50.756;4.472;2023-10-19T06:42:41;14.70;99.90
8832;DHT22;4452;50.756;4.472;2023-10-19T06:45:07;14.70;99.90
8832;DHT22;4452;50.756;4.472;2023-10-19T06:47:33;14.70;99.90
8832;DHT22;4452;50.756;4.472;2023-10-19T06:50:07;14.80;99.90
8832;DHT22;4452;50.756;4.472;2023-10-19T06:52:38;14.80;99.90
8832;DHT22;4452;50.756;4.472;2023-10-19T06:55:05;14.80;99.90
8832;DHT22;4452;50.756;4.472;2023-10-19T06:57:39;14.80;99.90
8832;DHT22;4452;50.756;4.472;2023-10-19T07:00:05;14.80;99.90
8832;DHT22;4452;50.756;4.472;2023-10-19T07:02:40;14.80;99.90
8832;DHT22;4452;50.756;4.472;2023-10-19T07:05:07;14.80;99.90
8832;DHT22;4452;50.756;4.472;2023-10-19T07:07:36;14.90;99.90
8832;DHT22;4452;50.756;4.472;2023-10-19T07:10:04;14.90;99.90
8832;DHT22;4452;50.756;4.472;2023-10-19T07:12:29;14.90;99.90
8832;DHT22;4452;50.756;4.472;2023-10-19T07:14:56;15.00;99.90
8832;DHT22;4452;50.756;4.472;2023-10-19T07:17:26;14.90;99.90
8832;DHT22;4452;50.756;4.472;2023-10-19T07:19:53;14.90;99.90
8832;DHT22;4452;50.756;4.472;2023-10-19T07:22:18;14.90;99.90
8832;DHT22;4452;50.756;4.472;2023-10-19T07:24:48;14.80;99.90
8832;DHT22;4452;50.756;4.472;2023-10-19T07:27:14;14.90;99.90
8832;DHT22;4452;50.756;4.472;2023-10-19T07:29:44;14.80;99.90
8832;DHT22;4452;50.756;4.472;2023-10-19T07:32:10;14.90;99.90
8832;DHT22;4452;50.756;4.472;2023-10-19T07:34:39;14.90;99.90
8832;DHT22;4452;50.756;4.472;2023-10-19T07:37:05;14.90;99.90
8832;DHT22;4452;50.756;4.472;2023-10-19T07:39:32;15.00;99.90
8832;DHT22;4452;50.756;4.472;2023-10-19T07:41:59;15.10;99.90
8832;DHT22;4452;50.756;4.472;2023-10-19T07:44:26;15.20;99.90
8832;DHT22;4452;50.756;4.472;2023-10-19T07:46:52;15.20;99.90
8832;DHT22;4452;50.756;4.472;2023-10-19T07:49:18;15.30;99.90
8832;DHT22;4452;50.756;4.472;2023-10-19T07:51:47;15.40;99.90
8832;DHT22;4452;50.756;4.472;2023-10-19T07:54:13;15.50;99.90
8832;DHT22;4452;50.756;4.472;2023-10-19T07:56:39;15.50;99.90
8832;DHT22;4452;50.756;4.472;2023-10-19T07:59:05;15.60;99.90
8832;DHT22;4452;50.756;4.472;2023-10-19T08:01:32;15.70;99.90
8832;DHT22;4452;50.756;4.472;2023-10-19T08:03:58;15.70;99.90
8832;DHT22;4452;50.756;4.472;2023-10-19T08:06:24;15.80;99.90
8832;DHT22;4452;50.756;4.472;2023-10-19T08:08:49;15.90;99.90
8832;DHT22;4452;50.756;4.472;2023-10-19T08:11:15;15.90;99.90
8832;DHT22;4452;50.756;4.472;2023-10-19T08:13:42;16.00;99.90
8832;DHT22;4452;50.756;4.472;2023-10-19T08:16:08;16.00;99.90
8832;DHT22;4452;50.756;4.472;2023-10-19T08:21:03;15.90;99.90
8832;DHT22;4452;50.756;4.472;2023-10-19T08:23:29;15.90;99.90
8832;DHT22;4452;50.756;4.472;2023-10-19T08:25:57;15.90;99.90
8832;DHT22;4452;50.756;4.472;2023-10-19T08:28:23;15.90;99.90
8832;DHT22;4452;50.756;4.472;2023-10-19T08:30:49;16.00;99.90
8832;DHT22;4452;50.756;4.472;2023-10-19T08:33:27;16.00;99.90
8832;DHT22;4452;50.756;4.472;2023-10-19T08:35:53;15.90;99.90
8832;DHT22;4452;50.756;4.472;2023-10-19T08:38:20;16.00;99.90
8832;DHT22;4452;50.756;4.472;2023-10-19T08:40:47;15.90;99.90
8832;DHT22;4452;50.756;4.472;2023-10-19T08:43:13;15.90;99.90
8832;DHT22;4452;50.756;4.472;2023-10-19T08:45:43;15.90;99.90
8832;DHT22;4452;50.756;4.472;2023-10-19T08:48:09;16.00;99.90
8832;DHT22;4452;50.756;4.472;2023-10-19T08:50:37;16.00;99.90
8832;DHT22;4452;50.756;4.472;2023-10-19T08:53:04;16.10;99.90
8832;DHT22;4452;50.756;4.472;2023-10-19T08:55:32;16.10;99.90
8832;DHT22;4452;50.756;4.472;2023-10-19T08:58:00;16.10;99.90
8832;DHT22;4452;50.756;4.472;2023-10-19T09:00:27;16.30;99.90
8832;DHT22;4452;50.756;4.472;2023-10-19T09:02:55;16.40;99.90
8832;DHT22;4452;50.756;4.472;2023-10-19T09:05:22;16.50;99.90
8832;DHT22;4452;50.756;4.472;2023-10-19T09:07:49;16.50;99.90
8832;DHT22;4452;50.756;4.472;2023-10-19T09:13:07;16.60;99.90
8832;DHT22;4452;50.756;4.472;2023-10-19T09:15:36;16.70;99.90
8832;DHT22;4452;50.756;4.472;2023-10-19T09:20:47;16.70;99.90
8832;DHT22;4452;50.756;4.472;2023-10-19T09:23:27;16.70;99.90
8832;DHT22;4452;50.756;4.472;2023-10-19T09:25:57;16.80;99.90
8832;DHT22;4452;50.756;4.472;2023-10-19T09:28:23;16.80;99.90
8832;DHT22;4452;50.756;4.472;2023-10-19T09:30:51;16.90;99.90
8832;DHT22;4452;50.756;4.472;2023-10-19T09:33:17;17.10;99.90
8832;DHT22;4452;50.756;4.472;2023-10-19T09:35:46;17.10;99.90
8832;DHT22;4452;50.756;4.472;2023-10-19T09:38:15;17.20;99.90
8832;DHT22;4452;50.756;4.472;2023-10-19T09:40:41;17.30;99.90
8832;DHT22;4452;50.756;4.472;2023-10-19T09:43:19;17.20;99.90
8832;DHT22;4452;50.756;4.472;2023-10-19T09:45:49;17.30;99.90
8832;DHT22;4452;50.756;4.472;2023-10-19T09:48:18;17.20;99.90
8832;DHT22;4452;50.756;4.472;2023-10-19T09:50:51;17.30;99.90
8832;DHT22;4452;50.756;4.472;2023-10-19T09:53:27;17.50;99.90
8832;DHT22;4452;50.756;4.472;2023-10-19T09:55:57;17.60;99.90
8832;DHT22;4452;50.756;4.472;2023-10-19T09:58:29;17.90;99.90
8832;DHT22;4452;50.756;4.472;2023-10-19T10:00:57;18.10;99.90
8832;DHT22;4452;50.756;4.472;2023-10-19T10:03:51;18.00;99.90
8832;DHT22;4452;50.756;4.472;2023-10-19T10:06:39;18.10;99.90
8832;DHT22;4452;50.756;4.472;2023-10-19T10:09:19;18.00;99.90
8832;DHT22;4452;50.756;4.472;2023-10-19T10:11:49;18.00;99.90
8832;DHT22;4452;50.756;4.472;2023-10-19T10:14:26;18.30;99.90
8832;DHT22;4452;50.756;4.472;2023-10-19T10:17:03;18.40;99.90
8832;DHT22;4452;50.756;4.472;2023-10-19T10:19:32;18.50;99.90
8832;DHT22;4452;50.756;4.472;2023-10-19T10:22:11;18.50;99.90
8832;DHT22;4452;50.756;4.472;2023-10-19T10:24:42;18.30;99.90
8832;DHT22;4452;50.756;4.472;2023-10-19T10:27:11;18.40;99.90
8832;DHT22;4452;50.756;4.472;2023-10-19T10:29:57;18.50;99.90
8832;DHT22;4452;50.756;4.472;2023-10-19T10:35:08;18.20;99.90
8832;DHT22;4452;50.756;4.472;2023-10-19T10:37:37;18.10;99.90
8832;DHT22;4452;50.756;4.472;2023-10-19T10:40:03;17.90;99.90
8832;DHT22;4452;50.756;4.472;2023-10-19T10:42:31;17.90;99.90
8832;DHT22;4452;50.756;4.472;2023-10-19T10:44:57;17.90;99.90
8832;DHT22;4452;50.756;4.472;2023-10-19T10:47:24;18.00;99.90
8832;DHT22;4452;50.756;4.472;2023-10-19T10:50:00;18.20;99.90
8832;DHT22;4452;50.756;4.472;2023-10-19T10:52:26;18.20;99.90
8832;DHT22;4452;50.756;4.472;2023-10-19T10:54:55;18.00;99.90
8832;DHT22;4452;50.756;4.472;2023-10-19T10:57:21;17.80;99.90
8832;DHT22;4452;50.756;4.472;2023-10-19T10:59:46;17.70;99.90
8832;DHT22;4452;50.756;4.472;2023-10-19T11:02:19;17.60;99.90
8832;DHT22;4452;50.756;4.472;2023-10-19T11:04:48;17.60;99.90
8832;DHT22;4452;50.756;4.472;2023-10-19T11:07:20;17.60;99.90
8832;DHT22;4452;50.756;4.472;2023-10-19T11:09:49;17.60;99.90
8832;DHT22;4452;50.756;4.472;2023-10-19T11:12:18;17.60;99.90
8832;DHT22;4452;50.756;4.472;2023-10-19T11:14:56;17.70;99.90
8832;DHT22;4452;50.756;4.472;2023-10-19T11:17:29;17.70;99.90
8832;DHT22;4452;50.756;4.472;2023-10-19T11:19:58;17.70;99.90
8832;DHT22;4452;50.756;4.472;2023-10-19T11:22:27;17.70;99.90
8832;DHT22;4452;50.756;4.472;2023-10-19T11:24:55;17.70;99.90
8832;DHT22;4452;50.756;4.472;2023-10-19T11:27:28;17.70;99.90
8832;DHT22;4452;50.756;4.472;2023-10-19T11:29:59;17.70;99.90
8832;DHT22;4452;50.756;4.472;2023-10-19T11:32:38;17.70;99.90
8832;DHT22;4452;50.756;4.472;2023-10-19T11:35:06;17.60;99.90
8832;DHT22;4452;50.756;4.472;2023-10-19T11:38:05;17.60;99.90
8832;DHT22;4452;50.756;4.472;2023-10-19T11:40:30;17.50;99.90
8832;DHT22;4452;50.756;4.472;2023-10-19T11:42:56;17.60;99.90
8832;DHT22;4452;50.756;4.472;2023-10-19T11:45:22;17.60;99.90
8832;DHT22;4452;50.756;4.472;2023-10-19T11:47:52;17.60;99.90
8832;DHT22;4452;50.756;4.472;2023-10-19T11:50:18;17.60;99.90
8832;DHT22;4452;50.756;4.472;2023-10-19T11:52:45;17.60;99.90
8832;DHT22;4452;50.756;4.472;2023-10-19T11:55:15;17.50;99.90
8832;DHT22;4452;50.756;4.472;2023-10-19T11:57:42;17.50;99.90
8832;DHT22;4452;50.756;4.472;2023-10-19T12:00:10;17.40;99.90
8832;DHT22;4452;50.756;4.472;2023-10-19T12:02:40;17.40;99.90
8832;DHT22;4452;50.756;4.472;2023-10-19T12:05:09;17.40;99.90
8832;DHT22;4452;50.756;4.472;2023-10-19T12:07:36;17.30;99.90
8832;DHT22;4452;50.756;4.472;2023-10-19T12:10:03;17.20;99.90
8832;DHT22;4452;50.756;4.472;2023-10-19T12:12:29;17.00;99.90
8832;DHT22;4452;50.756;4.472;2023-10-19T12:14:55;17.00;99.90
8832;DHT22;4452;50.756;4.472;2023-10-19T12:17:20;16.90;99.90
8832;DHT22;4452;50.756;4.472;2023-10-19T12:19:48;16.90;99.90
8832;DHT22;4452;50.756;4.472;2023-10-19T12:22:16;16.80;99.90
8832;DHT22;4452;50.756;4.472;2023-10-19T12:24:43;16.70;99.90
8832;DHT22;4452;50.756;4.472;2023-10-19T12:27:09;16.80;99.90
8832;DHT22;4452;50.756;4.472;2023-10-19T12:29:37;16.80;99.90
8832;DHT22;4452;50.756;4.472;2023-10-19T12:32:05;16.80;99.90
8832;DHT22;4452;50.756;4.472;2023-10-19T12:34:33;16.90;99.90
8832;DHT22;4452;50.756;4.472;2023-10-19T12:37:02;17.30;99.90
8832;DHT22;4452;50.756;4.472;2023-10-19T12:39:31;17.50;99.90
8832;DHT22;4452;50.756;4.472;2023-10-19T12:42:11;17.80;99.90
8832;DHT22;4452;50.756;4.472;2023-10-19T12:44:41;17.90;99.90
8832;DHT22;4452;50.756;4.472;2023-10-19T12:47:11;18.10;99.90
8832;DHT22;4452;50.756;4.472;2023-10-19T12:49:44;18.40;99.90
8832;DHT22;4452;50.756;4.472;2023-10-19T12:52:13;18.70;99.90
8832;DHT22;4452;50.756;4.472;2023-10-19T12:54:41;18.90;99.90
8832;DHT22;4452;50.756;4.472;2023-10-19T12:57:11;19.10;99.90
8832;DHT22;4452;50.756;4.472;2023-10-19T12:59:38;19.20;99.90
8832;DHT22;4452;50.756;4.472;2023-10-19T13:02:04;19.20;99.90
8832;DHT22;4452;50.756;4.472;2023-10-19T13:04:34;19.30;99.90
8832;DHT22;4452;50.756;4.472;2023-10-19T13:06:59;19.10;99.90
8832;DHT22;4452;50.756;4.472;2023-10-19T13:09:26;18.70;99.90
8832;DHT22;4452;50.756;4.472;2023-10-19T13:11:59;18.80;99.90
8832;DHT22;4452;50.756;4.472;2023-10-19T13:14:26;18.80;99.90
8832;DHT22;4452;50.756;4.472;2023-10-19T13:16:52;18.60;99.90
8832;DHT22;4452;50.756;4.472;2023-10-19T13:19:20;18.50;99.90
8832;DHT22;4452;50.756;4.472;2023-10-19T13:21:50;18.70;99.90
8832;DHT22;4452;50.756;4.472;2023-10-19T13:24:17;18.90;99.90
8832;DHT22;4452;50.756;4.472;2023-10-19T13:26:44;19.30;99.90
8832;DHT22;4452;50.756;4.472;2023-10-19T13:29:12;19.20;99.90
8832;DHT22;4452;50.756;4.472;2023-10-19T13:31:39;19.10;99.90
8832;DHT22;4452;50.756;4.472;2023-10-19T13:34:05;18.90;99.90
8832;DHT22;4452;50.756;4.472;2023-10-19T13:36:36;19.00;99.90
8832;DHT22;4452;50.756;4.472;2023-10-19T13:39:02;19.00;99.90
8832;DHT22;4452;50.756;4.472;2023-10-19T13:41:32;18.90;99.90
8832;DHT22;4452;50.756;4.472;2023-10-19T13:43:57;18.70;99.90
8832;DHT22;4452;50.756;4.472;2023-10-19T13:46:23;18.50;99.90
8832;DHT22;4452;50.756;4.472;2023-10-19T13:48:49;18.50;99.90
8832;DHT22;4452;50.756;4.472;2023-10-19T13:51:16;18.60;99.90
8832;DHT22;4452;50.756;4.472;2023-10-19T13:53:44;18.60;99.90
8832;DHT22;4452;50.756;4.472;2023-10-19T13:56:12;18.50;99.90
8832;DHT22;4452;50.756;4.472;2023-10-19T13:58:40;18.40;99.90
8832;DHT22;4452;50.756;4.472;2023-10-19T14:01:09;18.40;99.90
8832;DHT22;4452;50.756;4.472;2023-10-19T14:03:36;18.50;99.90
8832;DHT22;4452;50.756;4.472;2023-10-19T14:06:03;18.50;99.90
8832;DHT22;4452;50.756;4.472;2023-10-19T14:08:29;18.70;99.90
8832;DHT22;4452;50.756;4.472;2023-10-19T14:11:05;18.50;99.90
8832;DHT22;4452;50.756;4.472;2023-10-19T14:13:32;18.50;99.90
8832;DHT22;4452;50.756;4.472;2023-10-19T14:15:57;18.40;99.90
8832;DHT22;4452;50.756;4.472;2023-10-19T14:18:23;18.80;99.90
8832;DHT22;4452;50.756;4.472;2023-10-19T14:20:49;19.40;99.90
8832;DHT22;4452;50.756;4.472;2023-10-19T14:23:14;19.50;99.90
8832;DHT22;4452;50.756;4.472;2023-10-19T14:25:40;19.80;99.90
8832;DHT22;4452;50.756;4.472;2023-10-19T14:28:08;19.90;99.90
8832;DHT22;4452;50.756;4.472;2023-10-19T14:30:35;20.30;99.90
8832;DHT22;4452;50.756;4.472;2023-10-19T14:33:01;20.80;99.90
8832;DHT22;4452;50.756;4.472;2023-10-19T14:35:27;21.30;99.90
8832;DHT22;4452;50.756;4.472;2023-10-19T14:37:55;21.50;99.90
8832;DHT22;4452;50.756;4.472;2023-10-19T14:40:23;21.00;99.90
8832;DHT22;4452;50.756;4.472;2023-10-19T14:42:55;20.80;99.90
8832;DHT22;4452;50.756;4.472;2023-10-19T14:45:25;20.10;99.90
8832;DHT22;4452;50.756;4.472;2023-10-19T14:47:54;19.80;99.90
8832;DHT22;4452;50.756;4.472;2023-10-19T14:50:21;19.40;99.90
8832;DHT22;4452;50.756;4.472;2023-10-19T14:52:49;19.00;99.90
8832;DHT22;4452;50.756;4.472;2023-10-19T14:55:16;18.80;99.90
8832;DHT22;4452;50.756;4.472;2023-10-19T14:57:45;18.90;99.90
8832;DHT22;4452;50.756;4.472;2023-10-19T15:00:12;18.80;99.90
8832;DHT22;4452;50.756;4.472;2023-10-19T15:02:45;18.80;99.90
8832;DHT22;4452;50.756;4.472;2023-10-19T15:05:12;19.20;99.90
8832;DHT22;4452;50.756;4.472;2023-10-19T15:07:46;20.00;99.90
8832;DHT22;4452;50.756;4.472;2023-10-19T15:10:12;20.00;99.90
8832;DHT22;4452;50.756;4.472;2023-10-19T15:12:39;19.70;99.90
8832;DHT22;4452;50.756;4.472;2023-10-19T15:15:06;19.30;99.90
8832;DHT22;4452;50.756;4.472;2023-10-19T15:17:33;19.10;99.90
8832;DHT22;4452;50.756;4.472;2023-10-19T15:19:59;18.90;99.90
8832;DHT22;4452;50.756;4.472;2023-10-19T15:22:25;18.90;99.90
8832;DHT22;4452;50.756;4.472;2023-10-19T15:24:51;18.70;99.90
8832;DHT22;4452;50.756;4.472;2023-10-19T15:27:20;18.60;99.90
8832;DHT22;4452;50.756;4.472;2023-10-19T15:29:46;18.60;99.90
8832;DHT22;4452;50.756;4.472;2023-10-19T15:32:12;18.40;99.90
8832;DHT22;4452;50.756;4.472;2023-10-19T15:34:38;18.30;99.90
8832;DHT22;4452;50.756;4.472;2023-10-19T15:37:06;18.30;99.90
8832;DHT22;4452;50.756;4.472;2023-10-19T15:39:31;18.10;99.90
8832;DHT22;4452;50.756;4.472;2023-10-19T15:41:57;18.00;99.90
8832;DHT22;4452;50.756;4.472;2023-10-19T15:44:23;18.00;99.90
8832;DHT22;4452;50.756;4.472;2023-10-19T15:46:48;18.00;99.90
8832;DHT22;4452;50.756;4.472;2023-10-19T15:49:14;18.00;99.90
8832;DHT22;4452;50.756;4.472;2023-10-19T15:51:40;17.90;99.90
8832;DHT22;4452;50.756;4.472;2023-10-19T15:54:06;18.00;99.90
8832;DHT22;4452;50.756;4.472;2023-10-19T15:56:32;18.10;99.90
8832;DHT22;4452;50.756;4.472;2023-10-19T15:58:59;18.40;99.90
8832;DHT22;4452;50.756;4.472;2023-10-19T16:01:25;18.90;99.90
8832;DHT22;4452;50.756;4.472;2023-10-19T16:03:50;19.00;99.90
8832;DHT22;4452;50.756;4.472;2023-10-19T16:06:17;18.80;99.90
8832;DHT22;4452;50.756;4.472;2023-10-19T16:08:42;18.80;99.90
8832;DHT22;4452;50.756;4.472;2023-10-19T16:11:08;19.20;99.90
8832;DHT22;4452;50.756;4.472;2023-10-19T16:13:34;19.40;99.90
8832;DHT22;4452;50.756;4.472;2023-10-19T16:16:03;19.10;99.90
8832;DHT22;4452;50.756;4.472;2023-10-19T16:18:29;18.80;99.90
8832;DHT22;4452;50.756;4.472;2023-10-19T16:20:55;18.40;99.90
8832;DHT22;4452;50.756;4.472;2023-10-19T16:23:21;18.30;99.90
8832;DHT22;4452;50.756;4.472;2023-10-19T16:25:47;18.10;99.90